sensor_id;sensor_type;location;lat;lon;timestamp;temperature;humidity
10390;DHT22;5241;47.830;12.972;2022-12-26T00:00:38;7.20;99.90
10390;DHT22;5241;47.830;12.972;2022-12-26T00:03:04;7.10;99.90
10390;DHT22;5241;47.830;12.972;2022-12-26T00:05:35;7.10;99.90
10390;DHT22;5241;47.830;12.972;2022-12-26T00:08:01;7.10;99.90
10390;DHT22;5241;47.830;12.972;2022-12-26T00:10:26;7.20;99.90
10390;DHT22;5241;47.830;12.972;2022-12-26T00:12:52;7.10;99.90
10390;DHT22;5241;47.830;12.972;2022-12-26T00:15:18;7.10;99.90
10390;DHT22;5241;47.830;12.972;2022-12-26T00:17:43;7.00;99.90
10390;DHT22;5241;47.830;12.972;2022-12-26T00:20:09;7.00;99.90
10390;DHT22;5241;47.830;12.972;2022-12-26T00:22:35;6.90;99.90
10390;DHT22;5241;47.830;12.972;2022-12-26T00:25:00;6.90;99.90
10390;DHT22;5241;47.830;12.972;2022-12-26T00:27:26;6.80;99.90
10390;DHT22;5241;47.830;12.972;2022-12-26T00:29:52;6.70;99.90
10390;DHT22;5241;47.830;12.972;2022-12-26T00:32:17;6.70;99.90
10390;DHT22;5241;47.830;12.972;2022-12-26T00:34:43;6.60;99.90
10390;DHT22;5241;47.830;12.972;2022-12-26T00:37:08;6.70;99.90
10390;DHT22;5241;47.830;12.972;2022-12-26T00:39:34;6.70;99.90
10390;DHT22;5241;47.830;12.972;2022-12-26T00:41:59;6.80;99.90
10390;DHT22;5241;47.830;12.972;2022-12-26T00:44:25;6.70;99.90
10390;DHT22;5241;47.830;12.972;2022-12-26T00:46:50;6.80;99.90
10390;DHT22;5241;47.830;12.972;2022-12-26T00:49:16;6.60;99.90
10390;DHT22;5241;47.830;12.972;2022-12-26T00:51:42;6.60;99.90
10390;DHT22;5241;47.830;12.972;2022-12-26T00:54:07;6.70;99.90
10390;DHT22;5241;47.830;12.972;2022-12-26T00:56:33;6.70;99.90
10390;DHT22;5241;47.830;12.972;2022-12-26T00:58:58;6.60;99.90
10390;DHT22;5241;47.830;12.972;2022-12-26T01:01:24;6.70;99.90
10390;DHT22;5241;47.830;12.972;2022-12-26T01:03:50;6.70;99.90
10390;DHT22;5241;47.830;12.972;2022-12-26T01:06:16;6.60;99.90
10390;DHT22;5241;47.830;12.972;2022-12-26T01:08:43;6.60;99.90
10390;DHT22;5241;47.830;12.972;2022-12-26T01:11:11;6.60;99.90
10390;DHT22;5241;47.830;12.972;2022-12-26T01:13:37;6.50;99.90
10390;DHT22;5241;47.830;12.972;2022-12-26T01:16:03;6.50;99.90
10390;DHT22;5241;47.830;12.972;2022-12-26T01:18:30;6.50;99.90
10390;DHT22;5241;47.830;12.972;2022-12-26T01:21:00;6.50;99.90
10390;DHT22;5241;47.830;12.972;2022-12-26T01:23:26;6.40;99.90
10390;DHT22;5241;47.830;12.972;2022-12-26T01:25:51;6.40;99.90
10390;DHT22;5241;47.830;12.972;2022-12-26T01:28:17;6.50;99.90
10390;DHT22;5241;47.830;12.972;2022-12-26T01:30:43;6.60;99.90
10390;DHT22;5241;47.830;12.972;2022-12-26T01:33:08;6.60;99.90
10390;DHT22;5241;47.830;12.972;2022-12-26T01:35:34;6.70;99.90
10390;DHT22;5241;47.830;12.972;2022-12-26T01:37:59;6.60;99.90
10390;DHT22;5241;47.830;12.972;2022-12-26T01:40:25;6.60;99.90
10390;DHT22;5241;47.830;12.972;2022-12-26T01:42:51;6.60;99.90
10390;DHT22;5241;47.830;12.972;2022-12-26T01:45:29;6.50;99.90
10390;DHT22;5241;47.830;12.972;2022-12-26T01:48:14;6.50;99.90
10390;DHT22;5241;47.830;12.972;2022-12-26T01:50:54;6.50;99.90
10390;DHT22;5241;47.830;12.972;2022-12-26T01:53:28;6.50;99.90
10390;DHT22;5241;47.830;12.972;2022-12-26T01:56:02;6.40;99.90
10390;DHT22;5241;47.830;12.972;2022-12-26T01:58:35;6.40;99.90
10390;DHT22;5241;47.830;12.972;2022-12-26T02:01:03;6.30;99.90
10390;DHT22;5241;47.830;12.972;2022-12-26T02:03:30;6.20;99.90
10390;DHT22;5241;47.830;12.972;2022-12-26T02:06:16;6.20;99.90
10390;DHT22;5241;47.830;12.972;2022-12-26T02:08:43;6.30;99.90
10390;DHT22;5241;47.830;12.972;2022-12-26T02:11:19;6.30;99.90
10390;DHT22;5241;47.830;12.972;2022-12-26T02:13:46;6.30;99.90
10390;DHT22;5241;47.830;12.972;2022-12-26T02:16:15;6.30;99.90
10390;DHT22;5241;47.830;12.972;2022-12-26T02:18:41;6.30;99.90
10390;DHT22;5241;47.830;12.972;2022-12-26T02:27:15;6.40;99.90
10390;DHT22;5241;47.830;12.972;2022-12-26T02:38:27;6.40;99.90
10390;DHT22;5241;47.830;12.972;2022-12-26T02:43:58;6.40;99.90
10390;DHT22;5241;47.830;12.972;2022-12-26T02:46:47;6.40;99.90
10390;DHT22;5241;47.830;12.972;2022-12-26T02:50:07;6.50;99.90
10390;DHT22;5241;47.830;12.972;2022-12-26T02:53:09;6.50;99.90
10390;DHT22;5241;47.830;12.972;2022-12-26T02:56:01;6.50;99.90
10390;DHT22;5241;47.830;12.972;2022-12-26T03:01:38;6.40;99.90
10390;DHT22;5241;47.830;12.972;2022-12-26T03:04:26;6.40;99.90
10390;DHT22;5241;47.830;12.972;2022-12-26T03:07:19;6.40;99.90
10390;DHT22;5241;47.830;12.972;2022-12-26T03:10:13;6.30;99.90
10390;DHT22;5241;47.830;12.972;2022-12-26T03:13:07;6.30;99.90
10390;DHT22;5241;47.830;12.972;2022-12-26T03:15:43;6.30;99.90
10390;DHT22;5241;47.830;12.972;2022-12-26T03:18:28;6.30;99.90
10390;DHT22;5241;47.830;12.972;2022-12-26T03:20:55;6.30;99.90
10390;DHT22;5241;47.830;12.972;2022-12-26T03:23:21;6.20;99.90
10390;DHT22;5241;47.830;12.972;2022-12-26T03:25:58;6.20;99.90
10390;DHT22;5241;47.830;12.972;2022-12-26T03:28:45;6.20;99.90
10390;DHT22;5241;47.830;12.972;2022-12-26T03:31:13;6.20;99.90
10390;DHT22;5241;47.830;12.972;2022-12-26T03:33:41;6.20;99.90
10390;DHT22;5241;47.830;12.972;2022-12-26T03:37:03;6.10;99.90
10390;DHT22;5241;47.830;12.972;2022-12-26T03:43:16;6.20;99.90
10390;DHT22;5241;47.830;12.972;2022-12-26T03:49:32;6.30;99.90
10390;DHT22;5241;47.830;12.972;2022-12-26T03:52:31;6.20;99.90
10390;DHT22;5241;47.830;12.972;2022-12-26T03:55:25;6.30;99.90
10390;DHT22;5241;47.830;12.972;2022-12-26T03:58:28;6.30;99.90
10390;DHT22;5241;47.830;12.972;2022-12-26T04:01:18;6.30;99.90
10390;DHT22;5241;47.830;12.972;2022-12-26T04:04:05;6.30;99.90
10390;DHT22;5241;47.830;12.972;2022-12-26T04:07:08;6.20;99.90
10390;DHT22;5241;47.830;12.972;2022-12-26T04:10:05;6.20;99.90
10390;DHT22;5241;47.830;12.972;2022-12-26T04:12:52;6.30;99.90
10390;DHT22;5241;47.830;12.972;2022-12-26T04:18:44;6.30;99.90
10390;DHT22;5241;47.830;12.972;2022-12-26T04:21:47;6.30;99.90
10390;DHT22;5241;47.830;12.972;2022-12-26T04:24:36;6.30;99.90
10390;DHT22;5241;47.830;12.972;2022-12-26T04:27:24;6.30;99.90
10390;DHT22;5241;47.830;12.972;2022-12-26T04:30:11;6.30;99.90
10390;DHT22;5241;47.830;12.972;2022-12-26T04:33:01;6.20;99.90
10390;DHT22;5241;47.830;12.972;2022-12-26T04:35:58;6.10;99.90
10390;DHT22;5241;47.830;12.972;2022-12-26T04:38:49;6.10;99.90
10390;DHT22;5241;47.830;12.972;2022-12-26T04:41:37;6.10;99.90
10390;DHT22;5241;47.830;12.972;2022-12-26T04:44:23;6.10;99.90
10390;DHT22;5241;47.830;12.972;2022-12-26T04:46:50;6.00;99.90
10390;DHT22;5241;47.830;12.972;2022-12-26T04:49:17;5.90;99.90
10390;DHT22;5241;47.830;12.972;2022-12-26T04:52:10;5.90;99.90
10390;DHT22;5241;47.830;12.972;2022-12-26T04:54:37;6.00;99.90
10390;DHT22;5241;47.830;12.972;2022-12-26T04:57:03;6.00;99.90
10390;DHT22;5241;47.830;12.972;2022-12-26T04:59:28;5.90;99.90
10390;DHT22;5241;47.830;12.972;2022-12-26T05:01:54;5.90;99.90
10390;DHT22;5241;47.830;12.972;2022-12-26T05:04:38;6.00;99.90
10390;DHT22;5241;47.830;12.972;2022-12-26T05:07:34;5.90;99.90
10390;DHT22;5241;47.830;12.972;2022-12-26T05:10:24;6.00;99.90
10390;DHT22;5241;47.830;12.972;2022-12-26T05:12:51;6.00;99.90
10390;DHT22;5241;47.830;12.972;2022-12-26T05:15:17;6.00;99.90
10390;DHT22;5241;47.830;12.972;2022-12-26T05:17:43;6.10;99.90
10390;DHT22;5241;47.830;12.972;2022-12-26T05:20:27;6.10;99.90
10390;DHT22;5241;47.830;12.972;2022-12-26T05:23:23;6.10;99.90
10390;DHT22;5241;47.830;12.972;2022-12-26T05:26:17;6.00;99.90
10390;DHT22;5241;47.830;12.972;2022-12-26T05:29:03;6.00;99.90
10390;DHT22;5241;47.830;12.972;2022-12-26T05:31:29;6.00;99.90
10390;DHT22;5241;47.830;12.972;2022-12-26T05:33:54;6.00;99.90
10390;DHT22;5241;47.830;12.972;2022-12-26T05:36:41;6.00;99.90
10390;DHT22;5241;47.830;12.972;2022-12-26T05:39:09;6.00;99.90
10390;DHT22;5241;47.830;12.972;2022-12-26T05:41:36;5.90;99.90
10390;DHT22;5241;47.830;12.972;2022-12-26T05:44:02;5.90;99.90
10390;DHT22;5241;47.830;12.972;2022-12-26T05:46:27;6.00;99.90
10390;DHT22;5241;47.830;12.972;2022-12-26T05:48:53;6.00;99.90
10390;DHT22;5241;47.830;12.972;2022-12-26T05:51:18;5.90;99.90
10390;DHT22;5241;47.830;12.972;2022-12-26T05:53:44;5.80;99.90
10390;DHT22;5241;47.830;12.972;2022-12-26T05:56:12;5.80;99.90
10390;DHT22;5241;47.830;12.972;2022-12-26T05:58:38;5.80;99.90
10390;DHT22;5241;47.830;12.972;2022-12-26T06:01:10;5.80;99.90
10390;DHT22;5241;47.830;12.972;2022-12-26T06:03:36;5.80;99.90
10390;DHT22;5241;47.830;12.972;2022-12-26T06:06:03;5.80;99.90
10390;DHT22;5241;47.830;12.972;2022-12-26T06:08:28;5.80;99.90
10390;DHT22;5241;47.830;12.972;2022-12-26T06:10:54;5.90;99.90
10390;DHT22;5241;47.830;12.972;2022-12-26T06:13:19;5.90;99.90
10390;DHT22;5241;47.830;12.972;2022-12-26T06:15:45;5.80;99.90
10390;DHT22;5241;47.830;12.972;2022-12-26T06:18:11;5.80;99.90
10390;DHT22;5241;47.830;12.972;2022-12-26T06:20:39;5.70;99.90
10390;DHT22;5241;47.830;12.972;2022-12-26T06:23:05;5.60;99.90
10390;DHT22;5241;47.830;12.972;2022-12-26T06:25:31;5.50;99.90
10390;DHT22;5241;47.830;12.972;2022-12-26T06:27:56;5.60;99.90
10390;DHT22;5241;47.830;12.972;2022-12-26T06:30:22;5.70;99.90
10390;DHT22;5241;47.830;12.972;2022-12-26T06:32:48;5.70;99.90
10390;DHT22;5241;47.830;12.972;2022-12-26T06:35:13;5.80;99.90
10390;DHT22;5241;47.830;12.972;2022-12-26T06:37:39;5.80;99.90
10390;DHT22;5241;47.830;12.972;2022-12-26T06:40:05;5.80;99.90
10390;DHT22;5241;47.830;12.972;2022-12-26T06:42:30;5.90;99.90
10390;DHT22;5241;47.830;12.972;2022-12-26T06:44:56;5.90;99.90
10390;DHT22;5241;47.830;12.972;2022-12-26T06:47:22;5.90;99.90
10390;DHT22;5241;47.830;12.972;2022-12-26T06:49:47;5.90;99.90
10390;DHT22;5241;47.830;12.972;2022-12-26T06:52:13;6.00;99.90
10390;DHT22;5241;47.830;12.972;2022-12-26T06:54:39;6.00;99.90
10390;DHT22;5241;47.830;12.972;2022-12-26T06:57:05;6.00;99.90
10390;DHT22;5241;47.830;12.972;2022-12-26T06:59:30;5.90;99.90
10390;DHT22;5241;47.830;12.972;2022-12-26T07:01:56;5.80;99.90
10390;DHT22;5241;47.830;12.972;2022-12-26T07:04:21;5.80;99.90
10390;DHT22;5241;47.830;12.972;2022-12-26T07:06:47;5.80;99.90
10390;DHT22;5241;47.830;12.972;2022-12-26T07:09:15;5.70;99.90
10390;DHT22;5241;47.830;12.972;2022-12-26T07:11:44;5.70;99.90
10390;DHT22;5241;47.830;12.972;2022-12-26T07:14:10;5.60;99.90
10390;DHT22;5241;47.830;12.972;2022-12-26T07:16:36;5.40;99.90
10390;DHT22;5241;47.830;12.972;2022-12-26T07:19:03;5.40;99.90
10390;DHT22;5241;47.830;12.972;2022-12-26T07:21:28;5.40;99.90
10390;DHT22;5241;47.830;12.972;2022-12-26T07:23:54;5.40;99.90
10390;DHT22;5241;47.830;12.972;2022-12-26T07:26:21;5.50;99.90
10390;DHT22;5241;47.830;12.972;2022-12-26T07:28:47;5.50;99.90
10390;DHT22;5241;47.830;12.972;2022-12-26T07:31:17;5.60;99.90
10390;DHT22;5241;47.830;12.972;2022-12-26T07:33:46;5.60;99.90
10390;DHT22;5241;47.830;12.972;2022-12-26T07:36:12;5.70;99.90
10390;DHT22;5241;47.830;12.972;2022-12-26T07:38:38;5.80;99.90
10390;DHT22;5241;47.830;12.972;2022-12-26T07:41:04;5.90;99.90
10390;DHT22;5241;47.830;12.972;2022-12-26T07:43:49;5.90;99.90
10390;DHT22;5241;47.830;12.972;2022-12-26T07:46:15;6.00;99.90
10390;DHT22;5241;47.830;12.972;2022-12-26T07:48:41;6.00;99.90
10390;DHT22;5241;47.830;12.972;2022-12-26T07:51:06;6.00;99.90
10390;DHT22;5241;47.830;12.972;2022-12-26T07:53:32;6.00;99.90
10390;DHT22;5241;47.830;12.972;2022-12-26T07:56:00;6.10;99.90
10390;DHT22;5241;47.830;12.972;2022-12-26T07:58:26;6.10;99.90
10390;DHT22;5241;47.830;12.972;2022-12-26T08:00:52;6.10;99.90
10390;DHT22;5241;47.830;12.972;2022-12-26T08:03:17;6.10;99.90
10390;DHT22;5241;47.830;12.972;2022-12-26T08:05:47;6.30;99.90
10390;DHT22;5241;47.830;12.972;2022-12-26T08:08:13;6.30;99.90
10390;DHT22;5241;47.830;12.972;2022-12-26T08:10:39;6.40;99.90
10390;DHT22;5241;47.830;12.972;2022-12-26T08:13:04;6.40;99.90
10390;DHT22;5241;47.830;12.972;2022-12-26T08:15:30;6.50;99.90
10390;DHT22;5241;47.830;12.972;2022-12-26T08:17:55;6.60;99.90
10390;DHT22;5241;47.830;12.972;2022-12-26T08:20:21;6.60;99.90
10390;DHT22;5241;47.830;12.972;2022-12-26T08:22:46;6.60;99.90
10390;DHT22;5241;47.830;12.972;2022-12-26T08:25:12;6.60;99.90
10390;DHT22;5241;47.830;12.972;2022-12-26T08:27:37;6.60;99.90
10390;DHT22;5241;47.830;12.972;2022-12-26T08:30:03;6.70;99.90
10390;DHT22;5241;47.830;12.972;2022-12-26T08:32:29;6.80;99.90
10390;DHT22;5241;47.830;12.972;2022-12-26T08:34:55;6.90;99.90
10390;DHT22;5241;47.830;12.972;2022-12-26T08:37:21;7.10;99.90
10390;DHT22;5241;47.830;12.972;2022-12-26T08:39:49;7.20;99.90
10390;DHT22;5241;47.830;12.972;2022-12-26T08:42:17;7.10;99.90
10390;DHT22;5241;47.830;12.972;2022-12-26T08:44:42;7.10;99.90
10390;DHT22;5241;47.830;12.972;2022-12-26T08:47:08;7.20;99.90
10390;DHT22;5241;47.830;12.972;2022-12-26T08:49:33;7.30;99.90
10390;DHT22;5241;47.830;12.972;2022-12-26T08:51:59;7.30;99.90
10390;DHT22;5241;47.830;12.972;2022-12-26T08:54:24;7.40;99.90
10390;DHT22;5241;47.830;12.972;2022-12-26T08:56:50;7.30;99.90
10390;DHT22;5241;47.830;12.972;2022-12-26T08:59:15;7.40;99.90
10390;DHT22;5241;47.830;12.972;2022-12-26T09:01:41;7.50;99.90
10390;DHT22;5241;47.830;12.972;2022-12-26T09:04:07;7.50;99.90
10390;DHT22;5241;47.830;12.972;2022-12-26T09:06:34;7.60;99.90
10390;DHT22;5241;47.830;12.972;2022-12-26T09:09:02;7.70;99.90
10390;DHT22;5241;47.830;12.972;2022-12-26T09:11:27;7.80;99.90
10390;DHT22;5241;47.830;12.972;2022-12-26T09:13:55;7.90;99.90
10390;DHT22;5241;47.830;12.972;2022-12-26T09:16:42;8.10;99.90
10390;DHT22;5241;47.830;12.972;2022-12-26T09:19:12;8.10;99.90
10390;DHT22;5241;47.830;12.972;2022-12-26T09:21:38;8.20;99.90
10390;DHT22;5241;47.830;12.972;2022-12-26T09:24:06;8.30;99.90
10390;DHT22;5241;47.830;12.972;2022-12-26T09:26:34;8.40;99.90
10390;DHT22;5241;47.830;12.972;2022-12-26T09:28:59;8.40;99.90
10390;DHT22;5241;47.830;12.972;2022-12-26T09:31:27;8.50;99.90
10390;DHT22;5241;47.830;12.972;2022-12-26T09:33:53;8.50;99.90
10390;DHT22;5241;47.830;12.972;2022-12-26T09:36:21;8.70;99.90
10390;DHT22;5241;47.830;12.972;2022-12-26T09:38:48;8.80;99.90
10390;DHT22;5241;47.830;12.972;2022-12-26T09:41:18;8.80;99.90
10390;DHT22;5241;47.830;12.972;2022-12-26T09:43:59;8.80;99.90
10390;DHT22;5241;47.830;12.972;2022-12-26T09:46:59;8.90;99.90
10390;DHT22;5241;47.830;12.972;2022-12-26T09:52:20;8.80;99.90
10390;DHT22;5241;47.830;12.972;2022-12-26T09:54:56;8.70;99.90
10390;DHT22;5241;47.830;12.972;2022-12-26T09:57:31;8.70;99.90
10390;DHT22;5241;47.830;12.972;2022-12-26T10:00:01;8.70;99.90
10390;DHT22;5241;47.830;12.972;2022-12-26T10:02:29;8.80;99.90
10390;DHT22;5241;47.830;12.972;2022-12-26T10:04:55;8.80;99.90
10390;DHT22;5241;47.830;12.972;2022-12-26T10:07:39;8.70;99.90
10390;DHT22;5241;47.830;12.972;2022-12-26T10:13:04;8.80;99.90
10390;DHT22;5241;47.830;12.972;2022-12-26T10:15:52;9.00;99.90
10390;DHT22;5241;47.830;12.972;2022-12-26T10:18:48;9.20;99.90
10390;DHT22;5241;47.830;12.972;2022-12-26T10:24:03;9.40;99.90
10390;DHT22;5241;47.830;12.972;2022-12-26T10:26:37;9.50;99.90
10390;DHT22;5241;47.830;12.972;2022-12-26T10:29:24;9.60;99.90
10390;DHT22;5241;47.830;12.972;2022-12-26T10:31:55;9.90;99.90
10390;DHT22;5241;47.830;12.972;2022-12-26T10:34:34;10.20;99.90
10390;DHT22;5241;47.830;12.972;2022-12-26T10:39:44;10.70;99.90
10390;DHT22;5241;47.830;12.972;2022-12-26T10:44:48;10.80;99.90
10390;DHT22;5241;47.830;12.972;2022-12-26T10:49:57;10.60;99.90
10390;DHT22;5241;47.830;12.972;2022-12-26T10:52:27;10.70;99.90
10390;DHT22;5241;47.830;12.972;2022-12-26T10:54:57;10.70;99.90
10390;DHT22;5241;47.830;12.972;2022-12-26T10:57:23;11.20;99.90
10390;DHT22;5241;47.830;12.972;2022-12-26T10:59:51;11.60;99.90
10390;DHT22;5241;47.830;12.972;2022-12-26T11:02:27;11.90;99.90
10390;DHT22;5241;47.830;12.972;2022-12-26T11:04:58;12.10;99.90
10390;DHT22;5241;47.830;12.972;2022-12-26T11:07:26;12.20;99.90
10390;DHT22;5241;47.830;12.972;2022-12-26T11:09:53;12.30;99.90
10390;DHT22;5241;47.830;12.972;2022-12-26T11:12:23;12.20;99.90
10390;DHT22;5241;47.830;12.972;2022-12-26T11:15:00;12.10;99.90
10390;DHT22;5241;47.830;12.972;2022-12-26T11:17:29;11.90;99.90
10390;DHT22;5241;47.830;12.972;2022-12-26T11:20:28;11.80;99.90
10390;DHT22;5241;47.830;12.972;2022-12-26T11:23:12;11.70;99.90
10390;DHT22;5241;47.830;12.972;2022-12-26T11:25:51;11.70;99.90
10390;DHT22;5241;47.830;12.972;2022-12-26T11:28:28;11.70;99.90
10390;DHT22;5241;47.830;12.972;2022-12-26T11:30:54;11.70;99.90
10390;DHT22;5241;47.830;12.972;2022-12-26T11:33:42;11.70;99.90
10390;DHT22;5241;47.830;12.972;2022-12-26T11:36:09;11.80;99.90
10390;DHT22;5241;47.830;12.972;2022-12-26T11:38:51;11.80;99.90
10390;DHT22;5241;47.830;12.972;2022-12-26T11:44:12;12.00;99.90
10390;DHT22;5241;47.830;12.972;2022-12-26T11:47:00;12.10;99.90
10390;DHT22;5241;47.830;12.972;2022-12-26T11:49:40;12.20;99.90
10390;DHT22;5241;47.830;12.972;2022-12-26T11:55:36;12.60;99.90
10390;DHT22;5241;47.830;12.972;2022-12-26T12:01:02;12.60;99.90
10390;DHT22;5241;47.830;12.972;2022-12-26T12:03:39;12.60;99.90
10390;DHT22;5241;47.830;12.972;2022-12-26T12:14:11;12.50;99.90
10390;DHT22;5241;47.830;12.972;2022-12-26T12:19:24;12.30;99.90
10390;DHT22;5241;47.830;12.972;2022-12-26T12:27:35;12.60;99.90
10390;DHT22;5241;47.830;12.972;2022-12-26T12:30:25;12.60;99.90
10390;DHT22;5241;47.830;12.972;2022-12-26T12:33:30;12.50;99.90
10390;DHT22;5241;47.830;12.972;2022-12-26T12:36:15;12.30;99.90
10390;DHT22;5241;47.830;12.972;2022-12-26T12:38:55;12.30;99.90
10390;DHT22;5241;47.830;12.972;2022-12-26T12:41:29;12.20;99.90
10390;DHT22;5241;47.830;12.972;2022-12-26T12:44:03;12.10;99.90
10390;DHT22;5241;47.830;12.972;2022-12-26T12:51:55;11.90;99.90
10390;DHT22;5241;47.830;12.972;2022-12-26T12:54:44;11.80;99.90
10390;DHT22;5241;47.830;12.972;2022-12-26T12:57:23;11.80;99.90
10390;DHT22;5241;47.830;12.972;2022-12-26T13:00:11;11.70;99.90
10390;DHT22;5241;47.830;12.972;2022-12-26T13:02:46;11.60;99.90
10390;DHT22;5241;47.830;12.972;2022-12-26T13:08:03;11.30;99.90
10390;DHT22;5241;47.830;12.972;2022-12-26T13:10:32;11.30;99.90
10390;DHT22;5241;47.830;12.972;2022-12-26T13:13:07;11.30;99.90
10390;DHT22;5241;47.830;12.972;2022-12-26T13:15:43;11.20;99.90
10390;DHT22;5241;47.830;12.972;2022-12-26T13:18:26;11.10;99.90
10390;DHT22;5241;47.830;12.972;2022-12-26T13:20:58;11.10;99.90
10390;DHT22;5241;47.830;12.972;2022-12-26T13:23:40;10.90;99.90
10390;DHT22;5241;47.830;12.972;2022-12-26T13:26:30;10.90;99.90
10390;DHT22;5241;47.830;12.972;2022-12-26T13:31:35;10.80;99.90
10390;DHT22;5241;47.830;12.972;2022-12-26T13:34:02;10.70;99.90
10390;DHT22;5241;47.830;12.972;2022-12-26T13:36:34;10.50;99.90
10390;DHT22;5241;47.830;12.972;2022-12-26T13:41:27;10.20;99.90
10390;DHT22;5241;47.830;12.972;2022-12-26T14:00:22;10.10;99.90
10390;DHT22;5241;47.830;12.972;2022-12-26T14:11:41;10.00;99.90
10390;DHT22;5241;47.830;12.972;2022-12-26T14:25:44;10.10;99.90
10390;DHT22;5241;47.830;12.972;2022-12-26T14:28:44;10.10;99.90
10390;DHT22;5241;47.830;12.972;2022-12-26T14:34:27;10.30;99.90
10390;DHT22;5241;47.830;12.972;2022-12-26T14:37:03;10.30;99.90
10390;DHT22;5241;47.830;12.972;2022-12-26T14:39:55;10.40;99.90
10390;DHT22;5241;47.830;12.972;2022-12-26T14:42:25;10.30;99.90
10390;DHT22;5241;47.830;12.972;2022-12-26T14:47:54;10.40;99.90
10390;DHT22;5241;47.830;12.972;2022-12-26T14:58:43;10.30;99.90
10390;DHT22;5241;47.830;12.972;2022-12-26T15:03:48;10.20;99.90
10390;DHT22;5241;47.830;12.972;2022-12-26T15:09:09;10.10;99.90
10390;DHT22;5241;47.830;12.972;2022-12-26T15:20:48;10.00;99.90
10390;DHT22;5241;47.830;12.972;2022-12-26T15:25:41;10.00;99.90
10390;DHT22;5241;47.830;12.972;2022-12-26T15:31:09;9.90;99.90
10390;DHT22;5241;47.830;12.972;2022-12-26T15:33:39;9.90;99.90
10390;DHT22;5241;47.830;12.972;2022-12-26T15:42:02;9.80;99.90
10390;DHT22;5241;47.830;12.972;2022-12-26T15:44:44;9.80;99.90
10390;DHT22;5241;47.830;12.972;2022-12-26T15:52:38;9.70;99.90
10390;DHT22;5241;47.830;12.972;2022-12-26T15:55:16;9.60;99.90
10390;DHT22;5241;47.830;12.972;2022-12-26T16:00:48;9.60;99.90
10390;DHT22;5241;47.830;12.972;2022-12-26T16:03:41;9.60;99.90
10390;DHT22;5241;47.830;12.972;2022-12-26T16:06:16;9.60;99.90
10390;DHT22;5241;47.830;12.972;2022-12-26T16:11:48;9.70;99.90
10390;DHT22;5241;47.830;12.972;2022-12-26T16:14:31;9.60;99.90
10390;DHT22;5241;47.830;12.972;2022-12-26T16:19:39;9.50;99.90
10390;DHT22;5241;47.830;12.972;2022-12-26T16:22:07;9.40;99.90
10390;DHT22;5241;47.830;12.972;2022-12-26T16:24:55;9.40;99.90
10390;DHT22;5241;47.830;12.972;2022-12-26T16:27:22;9.40;99.90
10390;DHT22;5241;47.830;12.972;2022-12-26T16:30:12;9.30;99.90
10390;DHT22;5241;47.830;12.972;2022-12-26T16:32:38;9.30;99.90
10390;DHT22;5241;47.830;12.972;2022-12-26T16:35:12;9.20;99.90
10390;DHT22;5241;47.830;12.972;2022-12-26T16:37:39;9.20;99.90
10390;DHT22;5241;47.830;12.972;2022-12-26T16:42:41;9.20;99.90
10390;DHT22;5241;47.830;12.972;2022-12-26T16:45:30;9.20;99.90
10390;DHT22;5241;47.830;12.972;2022-12-26T16:47:56;9.10;99.90
10390;DHT22;5241;47.830;12.972;2022-12-26T16:50:25;9.10;99.90
10390;DHT22;5241;47.830;12.972;2022-12-26T16:53:15;9.00;99.90
10390;DHT22;5241;47.830;12.972;2022-12-26T16:56:20;8.90;99.90
10390;DHT22;5241;47.830;12.972;2022-12-26T16:58:43;8.90;99.90
10390;DHT22;5241;47.830;12.972;2022-12-26T17:01:13;8.80;99.90
10390;DHT22;5241;47.830;12.972;2022-12-26T17:04:03;8.80;99.90
10390;DHT22;5241;47.830;12.972;2022-12-26T17:06:36;8.80;99.90
10390;DHT22;5241;47.830;12.972;2022-12-26T17:09:08;8.80;99.90
10390;DHT22;5241;47.830;12.972;2022-12-26T17:11:37;8.70;99.90
10390;DHT22;5241;47.830;12.972;2022-12-26T17:14:06;8.70;99.90
10390;DHT22;5241;47.830;12.972;2022-12-26T17:16:41;8.60;99.90
10390;DHT22;5241;47.830;12.972;2022-12-26T17:19:20;8.60;99.90
10390;DHT22;5241;47.830;12.972;2022-12-26T17:24:43;8.60;99.90
10390;DHT22;5241;47.830;12.972;2022-12-26T17:29:59;8.50;99.90
10390;DHT22;5241;47.830;12.972;2022-12-26T17:32:41;8.50;99.90
10390;DHT22;5241;47.830;12.972;2022-12-26T17:35:19;8.50;99.90
10390;DHT22;5241;47.830;12.972;2022-12-26T17:37:50;8.50;99.90
10390;DHT22;5241;47.830;12.972;2022-12-26T17:40:20;8.50;99.90
10390;DHT22;5241;47.830;12.972;2022-12-26T17:42:49;8.50;99.90
10390;DHT22;5241;47.830;12.972;2022-12-26T17:45:26;8.50;99.90
10390;DHT22;5241;47.830;12.972;2022-12-26T17:47:56;8.40;99.90
10390;DHT22;5241;47.830;12.972;2022-12-26T17:50:23;8.40;99.90
10390;DHT22;5241;47.830;12.972;2022-12-26T17:52:50;8.40;99.90
10390;DHT22;5241;47.830;12.972;2022-12-26T17:55:18;8.40;99.90
10390;DHT22;5241;47.830;12.972;2022-12-26T17:57:46;8.40;99.90
10390;DHT22;5241;47.830;12.972;2022-12-26T18:00:20;8.40;99.90
10390;DHT22;5241;47.830;12.972;2022-12-26T18:02:47;8.40;99.90
10390;DHT22;5241;47.830;12.972;2022-12-26T18:05:13;8.40;99.90
10390;DHT22;5241;47.830;12.972;2022-12-26T18:07:38;8.30;99.90
10390;DHT22;5241;47.830;12.972;2022-12-26T18:10:05;8.30;99.90
10390;DHT22;5241;47.830;12.972;2022-12-26T18:12:31;8.30;99.90
10390;DHT22;5241;47.830;12.972;2022-12-26T18:14:57;8.40;99.90
10390;DHT22;5241;47.830;12.972;2022-12-26T18:17:22;8.40;99.90
10390;DHT22;5241;47.830;12.972;2022-12-26T18:19:48;8.40;99.90
10390;DHT22;5241;47.830;12.972;2022-12-26T18:22:16;8.40;99.90
10390;DHT22;5241;47.830;12.972;2022-12-26T18:24:42;8.40;99.90
10390;DHT22;5241;47.830;12.972;2022-12-26T18:27:22;8.50;99.90
10390;DHT22;5241;47.830;12.972;2022-12-26T18:29:49;8.50;99.90
10390;DHT22;5241;47.830;12.972;2022-12-26T18:32:25;8.60;99.90
10390;DHT22;5241;47.830;12.972;2022-12-26T18:34:51;8.60;99.90
10390;DHT22;5241;47.830;12.972;2022-12-26T18:37:18;8.80;99.90
10390;DHT22;5241;47.830;12.972;2022-12-26T18:39:43;8.70;99.90
10390;DHT22;5241;47.830;12.972;2022-12-26T18:42:13;8.70;99.90
10390;DHT22;5241;47.830;12.972;2022-12-26T18:44:40;8.60;99.90
10390;DHT22;5241;47.830;12.972;2022-12-26T18:47:12;8.60;99.90
10390;DHT22;5241;47.830;12.972;2022-12-26T18:49:39;8.60;99.90
10390;DHT22;5241;47.830;12.972;2022-12-26T18:52:04;8.60;99.90
10390;DHT22;5241;47.830;12.972;2022-12-26T18:54:30;8.50;99.90
10390;DHT22;5241;47.830;12.972;2022-12-26T18:56:55;8.50;99.90
10390;DHT22;5241;47.830;12.972;2022-12-26T18:59:21;8.40;99.90
10390;DHT22;5241;47.830;12.972;2022-12-26T19:01:47;8.30;99.90
10390;DHT22;5241;47.830;12.972;2022-12-26T19:04:13;8.30;99.90
10390;DHT22;5241;47.830;12.972;2022-12-26T19:06:39;8.20;99.90
10390;DHT22;5241;47.830;12.972;2022-12-26T19:09:05;8.20;99.90
10390;DHT22;5241;47.830;12.972;2022-12-26T19:11:31;8.20;99.90
10390;DHT22;5241;47.830;12.972;2022-12-26T19:13:56;8.20;99.90
10390;DHT22;5241;47.830;12.972;2022-12-26T19:16:22;8.10;99.90
10390;DHT22;5241;47.830;12.972;2022-12-26T19:18:48;8.10;99.90
10390;DHT22;5241;47.830;12.972;2022-12-26T19:21:14;8.20;99.90